createdAt,value
2023-03-05T00:00:44.975Z,59.39
2023-03-05T00:03:09.899Z,59.89
2023-03-05T00:05:23.408Z,60.18
2023-03-05T00:07:36.616Z,60.28
2023-03-05T00:09:49.925Z,60.14
2023-03-05T00:12:04.346Z,59.86
2023-03-05T00:14:18.094Z,59.66
2023-03-05T00:16:31.885Z,60.03
2023-03-05T00:18:45.951Z,59.89
2023-03-05T00:21:00.108Z,60.12
2023-03-05T00:23:13.286Z,59.41
2023-03-05T00:25:27.606Z,60.26
2023-03-05T00:27:40.509Z,60.16
2023-03-05T00:29:53.816Z,60.80
2023-03-05T00:32:07.035Z,61.07
2023-03-05T00:34:22.339Z,61.65
2023-03-05T00:36:37.027Z,62.23
2023-03-05T00:38:50.128Z,62.91
2023-03-05T00:41:03.567Z,63.41
2023-03-05T00:43:17.713Z,63.60
2023-03-05T00:45:31.533Z,63.71
2023-03-05T00:47:44.689Z,63.60
2023-03-05T00:49:57.879Z,63.87
2023-03-05T00:52:11.510Z,63.97
2023-03-05T00:54:24.621Z,64.08
2023-03-05T00:56:37.231Z,64.26
2023-03-05T00:58:51.402Z,64.29
2023-03-05T01:01:06.250Z,64.46
2023-03-05T01:03:19.847Z,64.72
2023-03-05T01:05:34.604Z,64.47
2023-03-05T01:07:47.758Z,64.74
2023-03-05T01:10:00.814Z,64.80
2023-03-05T01:12:14.333Z,64.94
2023-03-05T01:14:29.026Z,64.95
2023-03-05T01:16:41.965Z,65.09
2023-03-05T01:18:56.487Z,65.37
2023-03-05T01:21:09.643Z,65.60
2023-03-05T01:23:22.944Z,65.64
2023-03-05T01:25:36.376Z,65.86
2023-03-05T01:27:49.653Z,65.83
2023-03-05T01:30:03.261Z,65.81
2023-03-05T01:32:16.229Z,66.06
2023-03-05T01:34:29.536Z,65.94
2023-03-05T01:36:44.192Z,65.73
2023-03-05T01:38:58.018Z,65.86
2023-03-05T01:41:10.995Z,65.86
2023-03-05T01:43:32.417Z,65.93
2023-03-05T01:45:57.960Z,65.98
2023-03-05T01:48:11.289Z,66.10
2023-03-05T01:50:27.676Z,66.30
2023-03-05T01:52:42.805Z,66.41
2023-03-05T01:54:58.115Z,66.51
2023-03-05T01:57:15.845Z,66.55
2023-03-05T01:59:30.311Z,66.37
2023-03-05T02:01:47.055Z,66.38
2023-03-05T02:03:59.900Z,66.46
2023-03-05T02:06:13.453Z,66.53
2023-03-05T02:08:27.217Z,66.68
2023-03-05T02:10:41.516Z,66.79
2023-03-05T02:12:59.946Z,66.88
2023-03-05T02:15:15.459Z,66.85
2023-03-05T02:17:29.948Z,66.67
2023-03-05T02:19:56.515Z,66.97
2023-03-05T02:22:17.342Z,66.70
2023-03-05T02:24:41.283Z,66.78
2023-03-05T02:26:54.347Z,66.75
2023-03-05T02:29:08.375Z,66.55
2023-03-05T02:31:24.564Z,66.95
2023-03-05T02:33:37.378Z,66.71
2023-03-05T02:35:51.048Z,66.79
2023-03-05T02:38:04.272Z,66.72
2023-03-05T02:40:19.521Z,66.66
2023-03-05T02:42:34.682Z,66.79
2023-03-05T02:44:47.757Z,66.79
2023-03-05T02:47:01.144Z,66.91
2023-03-05T02:49:14.416Z,66.95
2023-03-05T02:51:27.224Z,67.15
2023-03-05T02:53:40.128Z,67.11
2023-03-05T02:55:54.990Z,67.23
2023-03-05T02:58:07.699Z,67.05
2023-03-05T03:00:22.401Z,67.10
2023-03-05T03:02:36.222Z,67.29
2023-03-05T03:04:49.166Z,67.37
2023-03-05T03:07:02.134Z,66.96
2023-03-05T03:09:14.907Z,67.14
2023-03-05T03:11:28.316Z,67.07
2023-03-05T03:13:41.340Z,67.23
2023-03-05T03:15:54.323Z,67.13
2023-03-05T03:18:09.008Z,67.45
2023-03-05T03:20:22.765Z,67.16
2023-03-05T03:22:35.518Z,67.15
2023-03-05T03:24:49.817Z,67.22
2023-03-05T03:27:02.693Z,67.25
2023-03-05T03:29:15.758Z,67.21
2023-03-05T03:31:28.647Z,67.11
2023-03-05T03:33:41.349Z,67.13
2023-03-05T03:35:54.388Z,67.06
2023-03-05T03:38:07.202Z,67.20
2023-03-05T03:40:20.642Z,67.07
2023-03-05T03:42:34.568Z,67.05
2023-03-05T03:44:48.832Z,67.44
2023-03-05T03:47:02.191Z,67.37
2023-03-05T03:49:21.159Z,67.10
2023-03-05T03:51:35.052Z,67.33
2023-03-05T03:53:48.112Z,67.39
2023-03-05T03:56:03.962Z,67.41
2023-03-05T03:58:16.954Z,67.25
2023-03-05T04:00:30.384Z,67.47
2023-03-05T04:02:43.131Z,67.32
2023-03-05T04:04:56.465Z,67.42
2023-03-05T04:07:09.297Z,67.62
2023-03-05T04:09:21.854Z,67.77
2023-03-05T04:11:35.138Z,67.53
2023-03-05T04:13:48.116Z,67.88
2023-03-05T04:16:00.930Z,67.77
2023-03-05T04:18:15.584Z,67.80
2023-03-05T04:20:28.667Z,67.86
2023-03-05T04:22:41.180Z,67.86
2023-03-05T04:24:54.700Z,67.86
2023-03-05T04:27:07.887Z,67.88
2023-03-05T04:29:21.276Z,68.30
2023-03-05T04:31:34.402Z,68.06
2023-03-05T04:33:47.241Z,68.11
2023-03-05T04:36:00.263Z,67.81
2023-03-05T04:38:13.204Z,67.98
2023-03-05T04:40:27.214Z,68.04
2023-03-05T04:42:40.602Z,67.94
2023-03-05T04:44:54.888Z,68.12
2023-03-05T04:47:08.266Z,68.07
2023-03-05T04:49:21.510Z,68.32
2023-03-05T04:51:37.141Z,68.34
2023-03-05T04:53:49.680Z,68.14
2023-03-05T04:56:03.283Z,68.35
2023-03-05T04:58:16.297Z,68.23
2023-03-05T05:00:29.320Z,68.57
2023-03-05T05:02:42.052Z,68.43
2023-03-05T05:04:58.333Z,68.63
2023-03-05T05:07:11.607Z,68.62
2023-03-05T05:09:24.811Z,68.75
2023-03-05T05:11:37.749Z,68.95
2023-03-05T05:13:50.742Z,69.00
2023-03-05T05:16:04.492Z,68.98
2023-03-05T05:18:17.748Z,68.93
2023-03-05T05:20:31.131Z,68.95
2023-03-05T05:22:44.057Z,68.93
2023-03-05T05:24:57.211Z,69.00
2023-03-05T05:27:09.941Z,69.11
2023-03-05T05:29:22.929Z,68.97
2023-03-05T05:31:36.135Z,68.94
2023-03-05T05:33:50.005Z,69.20
2023-03-05T05:36:02.879Z,69.22
2023-03-05T05:38:16.163Z,69.50
2023-03-05T05:40:28.954Z,69.44
2023-03-05T05:42:41.519Z,69.56
2023-03-05T05:44:54.575Z,69.65
2023-03-05T05:47:07.789Z,69.92
2023-03-05T05:49:20.254Z,70.27
2023-03-05T05:51:33.225Z,69.81
2023-03-05T05:53:46.593Z,70.16
2023-03-05T05:55:59.507Z,70.41
2023-03-05T05:58:12.308Z,70.22
2023-03-05T06:00:27.463Z,70.75
2023-03-05T06:02:40.707Z,70.61
2023-03-05T06:04:53.636Z,70.55
2023-03-05T06:07:07.207Z,70.53
2023-03-05T06:09:20.490Z,70.71
2023-03-05T06:11:35.151Z,70.68
2023-03-05T06:13:48.231Z,70.70
2023-03-05T06:16:07.395Z,71.07
2023-03-05T06:18:20.768Z,71.05
2023-03-05T06:20:34.277Z,70.86
2023-03-05T06:22:49.229Z,70.91
2023-03-05T06:25:02.381Z,70.97
2023-03-05T06:27:15.141Z,71.13
2023-03-05T06:29:28.060Z,71.30
2023-03-05T06:31:42.049Z,71.41
2023-03-05T06:33:56.130Z,71.65
2023-03-05T06:36:13.865Z,71.66
2023-03-05T06:38:27.165Z,71.58
2023-03-05T06:40:42.063Z,71.96
2023-03-05T06:42:54.791Z,72.21
2023-03-05T06:45:08.194Z,72.47
2023-03-05T06:47:20.955Z,72.68
2023-03-05T06:49:34.156Z,72.81
2023-03-05T06:51:46.781Z,73.04
2023-03-05T06:54:02.744Z,73.05
2023-03-05T06:56:17.734Z,73.21
2023-03-05T06:58:30.496Z,73.60
2023-03-05T07:00:43.807Z,73.80
2023-03-05T07:02:56.598Z,73.92
2023-03-05T07:05:10.241Z,74.00
2023-03-05T07:07:23.017Z,74.32
2023-03-05T07:09:36.222Z,74.48
2023-03-05T07:11:49.546Z,74.65
2023-03-05T07:14:02.591Z,74.75
2023-03-05T07:16:18.508Z,74.76
2023-03-05T07:18:33.856Z,74.78
2023-03-05T07:20:47.323Z,75.03
2023-03-05T07:23:00.578Z,74.77
2023-03-05T07:25:15.040Z,74.94
2023-03-05T07:27:28.053Z,74.99
2023-03-05T07:29:41.144Z,75.19
2023-03-05T07:31:54.951Z,75.11
2023-03-05T07:34:08.396Z,75.04
2023-03-05T07:36:22.734Z,75.24
2023-03-05T07:38:35.734Z,75.48
2023-03-05T07:40:48.402Z,75.17
2023-03-05T07:43:01.531Z,75.21
2023-03-05T07:45:16.293Z,75.38
2023-03-05T07:47:29.528Z,75.27
2023-03-05T07:49:42.752Z,75.18
2023-03-05T07:51:56.160Z,75.04
2023-03-05T07:54:09.322Z,75.33
2023-03-05T07:56:27.789Z,75.41
2023-03-05T07:58:41.139Z,75.52
2023-03-05T08:00:54.568Z,75.50
2023-03-05T08:03:07.740Z,75.44
2023-03-05T08:05:21.106Z,75.38
2023-03-05T08:07:34.524Z,75.70
2023-03-05T08:09:48.304Z,75.82
2023-03-05T08:12:01.435Z,76.03
2023-03-05T08:14:15.157Z,75.88
2023-03-05T08:16:29.433Z,76.23
2023-03-05T08:18:43.083Z,76.18
2023-03-05T08:20:55.723Z,76.25
2023-03-05T08:23:09.525Z,76.34
2023-03-05T08:25:22.418Z,76.39
2023-03-05T08:27:35.528Z,76.65
2023-03-05T08:29:48.759Z,76.53
2023-03-05T08:32:02.257Z,76.58
2023-03-05T08:34:14.899Z,76.53
2023-03-05T08:36:27.844Z,76.68
2023-03-05T08:38:40.560Z,76.54
2023-03-05T08:40:54.192Z,76.39
2023-03-05T08:43:08.341Z,76.21
2023-03-05T08:45:21.447Z,76.24
2023-03-05T08:47:34.380Z,76.13
2023-03-05T08:49:48.028Z,76.07
2023-03-05T08:52:00.967Z,75.84
2023-03-05T08:54:15.444Z,75.90
2023-03-05T08:56:29.771Z,75.76
2023-03-05T08:58:43.202Z,75.77
2023-03-05T09:00:56.226Z,75.77
2023-03-05T09:03:09.099Z,75.87
2023-03-05T09:05:22.642Z,75.71
2023-03-05T09:07:35.848Z,75.52
2023-03-05T09:09:48.621Z,75.38
2023-03-05T09:12:03.294Z,75.45
2023-03-05T09:14:16.343Z,75.42
2023-03-05T09:16:29.062Z,75.44
2023-03-05T09:18:42.249Z,75.58
2023-03-05T09:20:55.227Z,75.63
2023-03-05T09:23:09.269Z,75.66
2023-03-05T09:25:22.811Z,75.61
2023-03-05T09:27:39.102Z,75.74
2023-03-05T09:29:53.566Z,75.72
2023-03-05T09:32:08.573Z,75.64
2023-03-05T09:34:22.480Z,75.71
2023-03-05T09:36:36.622Z,75.43
2023-03-05T09:38:49.888Z,75.43
2023-03-05T09:41:08.864Z,75.57
2023-03-05T09:43:34.244Z,75.24
2023-03-05T09:45:59.340Z,75.16
2023-03-05T09:48:21.767Z,75.07
2023-03-05T09:50:43.373Z,75.24
2023-03-05T09:52:58.554Z,75.37
2023-03-05T09:55:18.168Z,75.43
2023-03-05T09:57:39.514Z,75.68
2023-03-05T09:59:55.139Z,75.77
2023-03-05T10:02:16.691Z,75.88
2023-03-05T10:04:35.587Z,75.96
2023-03-05T10:06:57.537Z,76.03
2023-03-05T10:09:17.892Z,75.98
2023-03-05T10:11:50.443Z,75.86
2023-03-05T10:14:03.403Z,75.95
2023-03-05T10:16:39.314Z,75.94
2023-03-05T10:19:02.217Z,75.87
2023-03-05T10:21:23.189Z,75.76
2023-03-05T10:23:52.958Z,75.97
2023-03-05T10:26:25.214Z,76.15
2023-03-05T10:28:51.756Z,76.22
2023-03-05T10:31:25.972Z,76.31
2023-03-05T10:33:46.742Z,76.57
2023-03-05T10:36:37.618Z,76.63
2023-03-05T10:39:25.307Z,76.73
2023-03-05T10:41:49.464Z,76.91
2023-03-05T10:44:12.196Z,76.87
2023-03-05T10:46:29.472Z,77.11
2023-03-05T10:48:48.525Z,77.25
2023-03-05T10:51:06.270Z,77.21
2023-03-05T10:53:29.371Z,77.41
2023-03-05T10:55:42.156Z,77.56
2023-03-05T10:57:55.002Z,77.44
2023-03-05T11:00:21.038Z,77.63
2023-03-05T11:02:34.496Z,77.69
2023-03-05T11:04:48.262Z,77.71
2023-03-05T11:07:01.320Z,77.81
2023-03-05T11:09:30.307Z,77.74
2023-03-05T11:11:42.952Z,77.81
2023-03-05T11:14:06.806Z,77.92
2023-03-05T11:16:25.249Z,77.88
2023-03-05T11:18:38.842Z,77.97
2023-03-05T11:20:52.029Z,77.95
2023-03-05T11:23:15.260Z,77.88
2023-03-05T11:25:29.133Z,77.99
2023-03-05T11:27:47.370Z,77.96
2023-03-05T11:30:02.122Z,78.19
2023-03-05T11:32:28.449Z,78.40
2023-03-05T11:34:41.379Z,78.38
2023-03-05T11:37:07.446Z,78.68
2023-03-05T11:39:23.650Z,78.68
2023-03-05T11:41:43.136Z,78.79
2023-03-05T11:43:57.710Z,79.03
2023-03-05T11:46:13.357Z,79.13
2023-03-05T11:48:34.769Z,79.16
2023-03-05T11:50:48.715Z,79.28
2023-03-05T11:53:05.809Z,79.34
2023-03-05T11:55:21.862Z,79.28
2023-03-05T11:57:42.073Z,79.28
2023-03-05T11:59:56.135Z,79.24
2023-03-05T12:02:19.398Z,79.26
2023-03-05T12:04:35.704Z,79.11
2023-03-05T12:06:51.822Z,79.08
2023-03-05T12:09:10.870Z,79.03
2023-03-05T12:11:27.683Z,78.97
2023-03-05T12:13:45.794Z,78.90
2023-03-05T12:16:21.239Z,78.82
2023-03-05T12:18:45.103Z,78.80
2023-03-05T12:21:08.039Z,78.78
2023-03-05T12:23:24.970Z,78.75
2023-03-05T12:25:48.942Z,78.71
2023-03-05T12:28:01.707Z,78.60
2023-03-05T12:30:51.336Z,78.46
2023-03-05T12:33:04.477Z,78.30
2023-03-05T12:35:31.945Z,78.14
2023-03-05T12:38:27.401Z,78.30
2023-03-05T12:40:40.695Z,78.06
2023-03-05T12:42:58.716Z,77.98
2023-03-05T12:45:46.657Z,77.89
2023-03-05T12:48:28.113Z,77.91
2023-03-05T12:51:01.416Z,77.86
2023-03-05T12:53:18.621Z,77.74
2023-03-05T12:55:34.643Z,77.63
2023-03-05T12:57:49.277Z,77.64
2023-03-05T13:00:09.182Z,77.59
2023-03-05T13:02:37.218Z,77.64
2023-03-05T13:04:53.683Z,77.60
2023-03-05T13:07:09.304Z,77.51
2023-03-05T13:09:32.489Z,77.55
2023-03-05T13:11:46.041Z,77.61
2023-03-05T13:13:59.840Z,77.66
2023-03-05T13:16:24.054Z,77.65
2023-03-05T13:18:45.593Z,77.67
2023-03-05T13:21:08.530Z,77.69
2023-03-05T13:23:25.284Z,77.44
2023-03-05T13:25:37.942Z,77.55
2023-03-05T13:27:50.932Z,77.62
2023-03-05T13:30:03.714Z,77.54
2023-03-05T13:32:28.863Z,77.63
2023-03-05T13:34:48.469Z,77.75
2023-03-05T13:37:04.504Z,77.55
2023-03-05T13:39:25.516Z,77.65
2023-03-05T13:41:38.069Z,77.55
2023-03-05T13:43:52.711Z,77.37
2023-03-05T13:46:05.832Z,77.50
2023-03-05T13:48:25.615Z,77.56
2023-03-05T13:50:40.284Z,77.56
2023-03-05T13:52:53.016Z,77.47
2023-03-05T13:55:07.859Z,77.41
2023-03-05T13:57:38.850Z,77.33
2023-03-05T13:59:59.138Z,77.33
2023-03-05T14:02:23.347Z,77.38
2023-03-05T14:04:38.993Z,77.40
2023-03-05T14:06:56.014Z,77.42
2023-03-05T14:09:21.106Z,77.46
2023-03-05T14:11:34.635Z,77.38
2023-03-05T14:13:49.758Z,77.48
2023-03-05T14:16:13.994Z,77.55
2023-03-05T14:18:26.959Z,77.45
2023-03-05T14:20:39.954Z,77.61
2023-03-05T14:22:53.756Z,77.61
2023-03-05T14:25:06.740Z,77.66
2023-03-05T14:27:25.976Z,77.48
2023-03-05T14:29:39.209Z,77.55
2023-03-05T14:31:55.448Z,77.51
2023-03-05T14:34:10.025Z,77.33
2023-03-05T14:36:28.461Z,77.43
2023-03-05T14:38:42.984Z,77.48
2023-03-05T14:40:55.635Z,77.56
2023-03-05T14:43:10.296Z,77.72
2023-03-05T14:45:25.506Z,77.72
2023-03-05T14:47:38.489Z,77.72
2023-03-05T14:49:51.542Z,77.68
2023-03-05T14:52:04.632Z,77.58
2023-03-05T14:54:27.557Z,77.63
2023-03-05T14:56:40.426Z,77.60
2023-03-05T14:58:52.999Z,77.75
2023-03-05T15:01:08.480Z,77.79
2023-03-05T15:03:23.882Z,77.76
2023-03-05T15:05:37.069Z,77.73
2023-03-05T15:07:50.699Z,77.88
2023-03-05T15:10:03.984Z,77.92
2023-03-05T15:12:18.811Z,77.97
2023-03-05T15:14:32.203Z,77.97
2023-03-05T15:16:47.581Z,77.98
2023-03-05T15:19:01.283Z,77.97
2023-03-05T15:21:14.018Z,78.01
2023-03-05T15:23:27.287Z,78.01
2023-03-05T15:25:40.190Z,77.99
2023-03-05T15:27:53.706Z,78.08
2023-03-05T15:30:07.221Z,78.13
2023-03-05T15:32:20.136Z,78.25
2023-03-05T15:34:34.756Z,78.15
2023-03-05T15:36:47.520Z,78.24
2023-03-05T15:39:01.148Z,78.17
2023-03-05T15:41:14.758Z,78.20
2023-03-05T15:43:28.201Z,78.14
2023-03-05T15:45:42.342Z,78.24
2023-03-05T15:47:57.161Z,78.30
2023-03-05T15:50:10.654Z,78.29
2023-03-05T15:52:23.552Z,78.33
2023-03-05T15:54:38.235Z,78.35
2023-03-05T15:56:52.004Z,78.28
2023-03-05T15:59:04.659Z,78.34
2023-03-05T16:01:20.287Z,78.30
2023-03-05T16:03:33.393Z,78.30
2023-03-05T16:05:46.622Z,78.39
2023-03-05T16:08:00.466Z,78.35
2023-03-05T16:10:21.569Z,78.44
2023-03-05T16:12:41.941Z,78.38
2023-03-05T16:14:54.781Z,78.51
2023-03-05T16:17:09.484Z,78.54
2023-03-05T16:19:24.980Z,78.68
2023-03-05T16:21:38.881Z,78.43
2023-03-05T16:23:51.844Z,78.37
2023-03-05T16:26:04.950Z,78.52
2023-03-05T16:28:17.934Z,78.46
2023-03-05T16:30:30.693Z,78.45
2023-03-05T16:32:43.836Z,78.47
2023-03-05T16:34:56.853Z,78.58
2023-03-05T16:37:09.634Z,78.60
2023-03-05T16:39:22.864Z,78.68
2023-03-05T16:41:36.289Z,78.64
2023-03-05T16:43:49.113Z,78.77
2023-03-05T16:46:02.281Z,78.78
2023-03-05T16:48:15.473Z,78.88
2023-03-05T16:50:28.600Z,78.81
2023-03-05T16:52:41.705Z,78.79
2023-03-05T16:54:54.774Z,78.67
2023-03-05T16:57:12.475Z,78.68
2023-03-05T16:59:25.539Z,78.78
2023-03-05T17:01:38.808Z,78.74
2023-03-05T17:03:52.274Z,78.71
2023-03-05T17:06:10.920Z,78.73
2023-03-05T17:08:25.471Z,78.79
2023-03-05T17:10:38.672Z,78.91
2023-03-05T17:12:53.975Z,78.88
2023-03-05T17:15:07.654Z,78.91
2023-03-05T17:17:20.867Z,78.96
2023-03-05T17:19:34.905Z,79.18
2023-03-05T17:21:51.810Z,79.02
2023-03-05T17:24:04.905Z,79.01
2023-03-05T17:26:20.084Z,79.03
2023-03-05T17:28:33.248Z,79.12
2023-03-05T17:30:46.359Z,78.91
2023-03-05T17:33:00.611Z,78.73
2023-03-05T17:35:22.381Z,78.86
2023-03-05T17:37:35.675Z,78.95
2023-03-05T17:39:48.565Z,78.94
2023-03-05T17:42:01.390Z,78.79
2023-03-05T17:44:14.539Z,78.60
2023-03-05T17:46:27.726Z,78.42
2023-03-05T17:48:40.400Z,78.45
2023-03-05T17:50:53.713Z,78.40
2023-03-05T17:53:06.616Z,78.00
2023-03-05T17:55:21.272Z,78.03
2023-03-05T17:57:34.224Z,77.91
2023-03-05T17:59:46.935Z,77.68
2023-03-05T18:01:59.796Z,77.34
2023-03-05T18:04:13.773Z,77.39
2023-03-05T18:06:26.683Z,77.25
2023-03-05T18:08:39.589Z,76.84
2023-03-05T18:10:52.490Z,76.93
2023-03-05T18:13:05.905Z,76.50
2023-03-05T18:15:20.263Z,76.85
2023-03-05T18:17:33.762Z,76.60
2023-03-05T18:19:46.475Z,77.03
2023-03-05T18:21:59.630Z,77.00
2023-03-05T18:24:13.216Z,76.78
2023-03-05T18:26:26.732Z,76.66
2023-03-05T18:28:40.525Z,76.62
2023-03-05T18:30:53.494Z,76.24
2023-03-05T18:33:07.466Z,75.99
2023-03-05T18:35:20.359Z,75.97
2023-03-05T18:37:33.066Z,75.69
2023-03-05T18:39:46.652Z,75.93
2023-03-05T18:41:59.728Z,75.56
2023-03-05T18:44:12.907Z,75.61
2023-03-05T18:46:26.199Z,75.67
2023-03-05T18:48:38.851Z,75.23
2023-03-05T18:50:52.144Z,75.31
2023-03-05T18:53:05.554Z,75.22
2023-03-05T18:55:21.491Z,74.68
2023-03-05T18:57:34.714Z,74.42
2023-03-05T18:59:48.601Z,74.34
2023-03-05T19:02:01.245Z,73.75
2023-03-05T19:04:14.129Z,73.83
2023-03-05T19:06:27.376Z,73.69
2023-03-05T19:08:40.449Z,73.83
2023-03-05T19:10:53.368Z,73.83
2023-03-05T19:13:45.335Z,73.80
2023-03-05T19:15:58.221Z,73.38
2023-03-05T19:18:11.581Z,73.26
2023-03-05T19:20:23.821Z,73.43
2023-03-05T19:22:37.128Z,73.10
2023-03-05T19:24:50.418Z,73.22
2023-03-05T19:27:11.177Z,73.08
2023-03-05T19:29:25.034Z,72.75
2023-03-05T19:31:38.012Z,72.16
2023-03-05T19:33:50.516Z,72.03
2023-03-05T19:36:03.855Z,71.60
2023-03-05T19:38:16.916Z,71.45
2023-03-05T19:40:29.443Z,70.86
2023-03-05T19:42:41.174Z,70.99
2023-03-05T19:44:53.911Z,70.79
2023-03-05T19:47:07.330Z,70.62
2023-03-05T19:49:20.604Z,70.81
2023-03-05T19:51:33.224Z,70.76
2023-03-05T19:53:46.681Z,71.02
2023-03-05T19:56:00.312Z,71.08
2023-03-05T19:58:12.906Z,71.15
2023-03-05T20:00:27.485Z,71.04
2023-03-05T20:02:40.498Z,70.63
2023-03-05T20:04:53.634Z,70.50
2023-03-05T20:07:08.194Z,70.49
2023-03-05T20:09:21.100Z,70.16
2023-03-05T20:11:34.201Z,69.96
2023-03-05T20:13:47.436Z,69.59
2023-03-05T20:16:00.059Z,68.80
2023-03-05T20:18:15.883Z,67.73
2023-03-05T20:20:32.266Z,67.59
2023-03-05T20:22:47.419Z,67.16
2023-03-05T20:25:00.223Z,67.33
2023-03-05T20:27:13.884Z,66.88
2023-03-05T20:29:26.594Z,66.40
2023-03-05T20:31:40.314Z,66.75
2023-03-05T20:33:53.062Z,67.08
2023-03-05T20:36:05.994Z,67.19
2023-03-05T20:38:26.270Z,67.03
2023-03-05T20:40:40.450Z,66.26
2023-03-05T20:42:54.027Z,65.36
2023-03-05T20:45:07.978Z,65.44
2023-03-05T20:47:47.141Z,65.63
2023-03-05T20:50:01.956Z,65.40
2023-03-05T20:52:14.565Z,65.00
2023-03-05T20:54:28.315Z,64.62
2023-03-05T20:56:42.355Z,64.89
2023-03-05T20:58:56.401Z,64.70
2023-03-05T21:01:10.213Z,65.01
2023-03-05T21:03:25.467Z,64.72
2023-03-05T21:05:39.555Z,64.65
2023-03-05T21:07:52.625Z,64.50
2023-03-05T21:10:05.357Z,64.30
2023-03-05T21:12:18.276Z,64.25
2023-03-05T21:14:31.003Z,64.61
2023-03-05T21:16:44.219Z,64.55
2023-03-05T21:18:58.238Z,64.42
2023-03-05T21:21:12.361Z,64.33
2023-03-05T21:23:25.345Z,64.20
2023-03-05T21:25:39.215Z,64.02
2023-03-05T21:27:53.850Z,63.94
2023-03-05T21:30:08.189Z,63.89
2023-03-05T21:32:21.292Z,64.01
2023-03-05T21:34:34.850Z,64.02
2023-03-05T21:36:47.927Z,64.21
2023-03-05T21:39:01.431Z,63.87
2023-03-05T21:41:14.331Z,64.02
2023-03-05T21:43:28.247Z,63.89
2023-03-05T21:45:41.465Z,63.81
2023-03-05T21:47:55.079Z,64.17
2023-03-05T21:50:09.102Z,64.32
2023-03-05T21:52:23.469Z,64.25
2023-03-05T21:54:36.489Z,64.41
2023-03-05T21:56:49.400Z,64.34
2023-03-05T21:59:03.232Z,64.35
2023-03-05T22:01:19.569Z,64.41
2023-03-05T22:03:32.902Z,64.42
2023-03-05T22:05:47.709Z,64.52
2023-03-05T22:08:00.948Z,64.60
2023-03-05T22:10:17.275Z,64.71
2023-03-05T22:13:21.714Z,64.64
2023-03-05T22:15:34.662Z,64.51
2023-03-05T22:17:47.506Z,64.43
2023-03-05T22:20:00.101Z,64.79
2023-03-05T22:22:12.833Z,64.61
2023-03-05T22:24:26.559Z,64.52
2023-03-05T22:26:43.100Z,64.39
2023-03-05T22:28:55.734Z,64.43
2023-03-05T22:31:08.979Z,64.28
2023-03-05T22:33:23.065Z,64.31
2023-03-05T22:35:36.011Z,64.00
2023-03-05T22:37:49.560Z,63.72
2023-03-05T22:40:02.583Z,63.65
2023-03-05T22:42:15.896Z,63.58
2023-03-05T22:44:28.902Z,63.60
2023-03-05T22:46:42.135Z,63.41
2023-03-05T22:48:55.401Z,63.14
2023-03-05T22:51:09.605Z,63.55
2023-03-05T22:53:22.889Z,63.73
2023-03-05T22:55:35.407Z,63.79
2023-03-05T22:57:49.348Z,63.67
2023-03-05T23:00:02.588Z,63.81
2023-03-05T23:02:16.232Z,63.90
2023-03-05T23:04:54.328Z,63.94
2023-03-05T23:07:07.552Z,63.86
2023-03-05T23:09:20.713Z,64.05
2023-03-05T23:11:34.121Z,63.90
2023-03-05T23:13:47.119Z,64.05
2023-03-05T23:15:59.760Z,64.25
2023-03-05T23:18:15.341Z,64.30
2023-03-05T23:20:30.244Z,64.22
2023-03-05T23:22:43.579Z,64.37
2023-03-05T23:24:56.842Z,64.38
2023-03-05T23:27:13.847Z,64.18
2023-03-05T23:30:17.507Z,63.92
2023-03-05T23:32:33.178Z,64.01
2023-03-05T23:34:46.433Z,64.11
2023-03-05T23:36:59.424Z,63.82
2023-03-05T23:39:11.968Z,63.99
2023-03-05T23:41:24.941Z,64.08
2023-03-05T23:43:38.393Z,64.26
2023-03-05T23:45:56.048Z,64.72
2023-03-05T23:48:09.482Z,64.58
2023-03-05T23:50:25.650Z,64.51
2023-03-05T23:52:39.973Z,64.47
2023-03-05T23:54:52.699Z,64.36
2023-03-05T23:57:05.325Z,64.41
2023-03-05T23:59:18.088Z,64.31
